sensor_id;sensor_type;location;lat;lon;timestamp;P1;durP1;ratioP1;P2;durP2;ratioP2
48100;SDS011;33878;47.442;18.916;2022-09-09T00:02:46;5.37;;;2.37;;
48100;SDS011;33878;47.442;18.916;2022-09-09T00:11:48;6.75;;;2.35;;
48100;SDS011;33878;47.442;18.916;2022-09-09T00:14:51;2.67;;;1.80;;
48100;SDS011;33878;47.442;18.916;2022-09-09T00:17:43;8.35;;;2.08;;
48100;SDS011;33878;47.442;18.916;2022-09-09T00:20:48;3.15;;;2.20;;
48100;SDS011;33878;47.442;18.916;2022-09-09T00:23:41;4.32;;;2.10;;
48100;SDS011;33878;47.442;18.916;2022-09-09T00:26:32;5.00;;;2.20;;
48100;SDS011;33878;47.442;18.916;2022-09-09T00:32:14;3.17;;;2.12;;
48100;SDS011;33878;47.442;18.916;2022-09-09T00:38:14;3.45;;;2.40;;
48100;SDS011;33878;47.442;18.916;2022-09-09T00:43:57;6.70;;;2.75;;
48100;SDS011;33878;47.442;18.916;2022-09-09T00:56:14;3.72;;;2.45;;
48100;SDS011;33878;47.442;18.916;2022-09-09T00:59:08;4.55;;;2.58;;
48100;SDS011;33878;47.442;18.916;2022-09-09T01:01:58;4.62;;;2.40;;
48100;SDS011;33878;47.442;18.916;2022-09-09T01:04:45;5.37;;;2.30;;
48100;SDS011;33878;47.442;18.916;2022-09-09T01:07:31;3.80;;;2.40;;
48100;SDS011;33878;47.442;18.916;2022-09-09T01:10:28;3.15;;;2.25;;
48100;SDS011;33878;47.442;18.916;2022-09-09T01:13:26;5.05;;;2.80;;
48100;SDS011;33878;47.442;18.916;2022-09-09T01:16:16;3.42;;;2.67;;
48100;SDS011;33878;47.442;18.916;2022-09-09T01:19:03;4.93;;;2.40;;
48100;SDS011;33878;47.442;18.916;2022-09-09T01:21:56;3.40;;;2.33;;
48100;SDS011;33878;47.442;18.916;2022-09-09T01:28:08;3.37;;;2.57;;
48100;SDS011;33878;47.442;18.916;2022-09-09T01:30:56;4.80;;;2.67;;
48100;SDS011;33878;47.442;18.916;2022-09-09T01:33:44;6.68;;;3.15;;
48100;SDS011;33878;47.442;18.916;2022-09-09T01:37:13;7.53;;;2.90;;
48100;SDS011;33878;47.442;18.916;2022-09-09T01:39:43;4.15;;;2.97;;
48100;SDS011;33878;47.442;18.916;2022-09-09T01:42:31;4.37;;;2.85;;
48100;SDS011;33878;47.442;18.916;2022-09-09T01:45:18;5.60;;;3.17;;
48100;SDS011;33878;47.442;18.916;2022-09-09T01:48:04;4.57;;;3.00;;
48100;SDS011;33878;47.442;18.916;2022-09-09T01:50:50;4.72;;;3.30;;
48100;SDS011;33878;47.442;18.916;2022-09-09T01:53:37;6.18;;;3.10;;
48100;SDS011;33878;47.442;18.916;2022-09-09T02:02:13;6.18;;;3.45;;
48100;SDS011;33878;47.442;18.916;2022-09-09T02:08:29;6.35;;;3.20;;
48100;SDS011;33878;47.442;18.916;2022-09-09T02:11:29;7.70;;;3.58;;
48100;SDS011;33878;47.442;18.916;2022-09-09T02:14:18;5.93;;;3.40;;
48100;SDS011;33878;47.442;18.916;2022-09-09T02:17:10;4.25;;;3.22;;
48100;SDS011;33878;47.442;18.916;2022-09-09T02:20:00;5.85;;;3.33;;
48100;SDS011;33878;47.442;18.916;2022-09-09T02:22:52;6.07;;;3.78;;
48100;SDS011;33878;47.442;18.916;2022-09-09T02:25:39;4.53;;;3.12;;
48100;SDS011;33878;47.442;18.916;2022-09-09T02:28:29;7.18;;;3.60;;
48100;SDS011;33878;47.442;18.916;2022-09-09T02:31:18;5.95;;;3.58;;
48100;SDS011;33878;47.442;18.916;2022-09-09T02:34:07;3.67;;;2.65;;
48100;SDS011;33878;47.442;18.916;2022-09-09T02:36:56;5.75;;;4.07;;
48100;SDS011;33878;47.442;18.916;2022-09-09T02:39:43;5.03;;;3.47;;
48100;SDS011;33878;47.442;18.916;2022-09-09T02:42:30;5.50;;;3.20;;
48100;SDS011;33878;47.442;18.916;2022-09-09T02:45:18;4.85;;;3.30;;
48100;SDS011;33878;47.442;18.916;2022-09-09T02:48:20;7.85;;;4.05;;
48100;SDS011;33878;47.442;18.916;2022-09-09T02:51:18;5.85;;;3.40;;
48100;SDS011;33878;47.442;18.916;2022-09-09T02:57:22;6.12;;;3.58;;
48100;SDS011;33878;47.442;18.916;2022-09-09T03:00:10;5.87;;;3.62;;
48100;SDS011;33878;47.442;18.916;2022-09-09T03:02:57;5.25;;;3.72;;
48100;SDS011;33878;47.442;18.916;2022-09-09T03:05:44;5.82;;;3.35;;
48100;SDS011;33878;47.442;18.916;2022-09-09T03:08:30;5.12;;;3.17;;
48100;SDS011;33878;47.442;18.916;2022-09-09T03:11:17;6.97;;;4.05;;
48100;SDS011;33878;47.442;18.916;2022-09-09T03:14:03;5.43;;;3.35;;
48100;SDS011;33878;47.442;18.916;2022-09-09T03:16:50;5.05;;;3.62;;
48100;SDS011;33878;47.442;18.916;2022-09-09T03:19:37;5.85;;;3.58;;
48100;SDS011;33878;47.442;18.916;2022-09-09T03:22:24;6.22;;;3.28;;
48100;SDS011;33878;47.442;18.916;2022-09-09T03:25:12;4.90;;;3.25;;
48100;SDS011;33878;47.442;18.916;2022-09-09T03:27:59;5.25;;;3.40;;
48100;SDS011;33878;47.442;18.916;2022-09-09T03:30:45;5.75;;;3.15;;
48100;SDS011;33878;47.442;18.916;2022-09-09T03:33:31;7.68;;;3.53;;
48100;SDS011;33878;47.442;18.916;2022-09-09T03:36:19;6.55;;;3.42;;
48100;SDS011;33878;47.442;18.916;2022-09-09T03:39:05;6.35;;;3.47;;
48100;SDS011;33878;47.442;18.916;2022-09-09T03:41:52;5.70;;;3.25;;
48100;SDS011;33878;47.442;18.916;2022-09-09T03:44:38;8.38;;;4.20;;
48100;SDS011;33878;47.442;18.916;2022-09-09T03:47:25;5.72;;;4.15;;
48100;SDS011;33878;47.442;18.916;2022-09-09T03:50:12;5.87;;;4.18;;
48100;SDS011;33878;47.442;18.916;2022-09-09T03:52:59;6.50;;;4.22;;
48100;SDS011;33878;47.442;18.916;2022-09-09T03:55:49;5.68;;;4.07;;
48100;SDS011;33878;47.442;18.916;2022-09-09T03:58:38;8.43;;;5.20;;
48100;SDS011;33878;47.442;18.916;2022-09-09T04:01:25;8.35;;;5.62;;
48100;SDS011;33878;47.442;18.916;2022-09-09T04:04:12;8.60;;;5.80;;
48100;SDS011;33878;47.442;18.916;2022-09-09T04:06:58;8.68;;;5.53;;
48100;SDS011;33878;47.442;18.916;2022-09-09T04:09:45;9.10;;;5.60;;
48100;SDS011;33878;47.442;18.916;2022-09-09T04:12:32;10.27;;;5.25;;
48100;SDS011;33878;47.442;18.916;2022-09-09T04:15:18;10.60;;;5.45;;
48100;SDS011;33878;47.442;18.916;2022-09-09T04:18:04;7.25;;;5.18;;
48100;SDS011;33878;47.442;18.916;2022-09-09T04:20:52;7.25;;;5.45;;
48100;SDS011;33878;47.442;18.916;2022-09-09T04:23:39;8.38;;;6.10;;
48100;SDS011;33878;47.442;18.916;2022-09-09T04:26:25;7.97;;;5.62;;
48100;SDS011;33878;47.442;18.916;2022-09-09T04:29:12;7.68;;;5.50;;
48100;SDS011;33878;47.442;18.916;2022-09-09T04:31:58;9.05;;;6.00;;
48100;SDS011;33878;47.442;18.916;2022-09-09T04:34:44;9.57;;;6.40;;
48100;SDS011;33878;47.442;18.916;2022-09-09T04:37:32;8.18;;;5.55;;
48100;SDS011;33878;47.442;18.916;2022-09-09T04:40:19;9.95;;;6.43;;
48100;SDS011;33878;47.442;18.916;2022-09-09T04:43:05;7.18;;;5.65;;
48100;SDS011;33878;47.442;18.916;2022-09-09T04:45:51;8.25;;;5.45;;
48100;SDS011;33878;47.442;18.916;2022-09-09T04:48:38;7.78;;;5.82;;
48100;SDS011;33878;47.442;18.916;2022-09-09T04:51:25;9.20;;;6.20;;
48100;SDS011;33878;47.442;18.916;2022-09-09T04:54:12;7.97;;;5.68;;
48100;SDS011;33878;47.442;18.916;2022-09-09T04:56:59;6.95;;;5.20;;
48100;SDS011;33878;47.442;18.916;2022-09-09T04:59:46;8.68;;;5.60;;
48100;SDS011;33878;47.442;18.916;2022-09-09T05:02:32;7.28;;;5.72;;
48100;SDS011;33878;47.442;18.916;2022-09-09T05:05:19;7.55;;;5.35;;
48100;SDS011;33878;47.442;18.916;2022-09-09T05:08:07;7.55;;;6.05;;
48100;SDS011;33878;47.442;18.916;2022-09-09T05:10:54;9.82;;;6.32;;
48100;SDS011;33878;47.442;18.916;2022-09-09T05:13:40;10.60;;;6.53;;
48100;SDS011;33878;47.442;18.916;2022-09-09T05:16:27;8.35;;;6.32;;
48100;SDS011;33878;47.442;18.916;2022-09-09T05:19:13;8.55;;;5.47;;
48100;SDS011;33878;47.442;18.916;2022-09-09T05:22:00;11.70;;;6.43;;
48100;SDS011;33878;47.442;18.916;2022-09-09T05:24:47;8.10;;;6.37;;
48100;SDS011;33878;47.442;18.916;2022-09-09T05:27:36;8.52;;;6.60;;
48100;SDS011;33878;47.442;18.916;2022-09-09T05:30:23;8.70;;;6.43;;
48100;SDS011;33878;47.442;18.916;2022-09-09T05:33:11;8.80;;;6.30;;
48100;SDS011;33878;47.442;18.916;2022-09-09T05:36:01;9.20;;;6.25;;
48100;SDS011;33878;47.442;18.916;2022-09-09T05:38:49;7.32;;;5.62;;
48100;SDS011;33878;47.442;18.916;2022-09-09T05:41:35;8.57;;;5.72;;
48100;SDS011;33878;47.442;18.916;2022-09-09T05:44:22;8.15;;;5.80;;
48100;SDS011;33878;47.442;18.916;2022-09-09T05:47:11;10.48;;;5.72;;
48100;SDS011;33878;47.442;18.916;2022-09-09T05:49:57;8.00;;;5.53;;
48100;SDS011;33878;47.442;18.916;2022-09-09T05:52:44;7.32;;;5.28;;
48100;SDS011;33878;47.442;18.916;2022-09-09T05:55:31;9.23;;;5.50;;
48100;SDS011;33878;47.442;18.916;2022-09-09T05:58:17;6.57;;;5.18;;
48100;SDS011;33878;47.442;18.916;2022-09-09T06:01:08;7.50;;;5.47;;
48100;SDS011;33878;47.442;18.916;2022-09-09T06:03:59;8.35;;;6.03;;
48100;SDS011;33878;47.442;18.916;2022-09-09T06:06:45;7.50;;;5.20;;
48100;SDS011;33878;47.442;18.916;2022-09-09T06:09:33;7.62;;;5.30;;
48100;SDS011;33878;47.442;18.916;2022-09-09T06:12:20;7.72;;;5.07;;
48100;SDS011;33878;47.442;18.916;2022-09-09T06:15:07;8.13;;;4.87;;
48100;SDS011;33878;47.442;18.916;2022-09-09T06:17:55;9.23;;;5.22;;
48100;SDS011;33878;47.442;18.916;2022-09-09T06:20:42;7.32;;;5.12;;
48100;SDS011;33878;47.442;18.916;2022-09-09T06:23:28;9.30;;;5.30;;
48100;SDS011;33878;47.442;18.916;2022-09-09T06:26:16;7.57;;;5.85;;
48100;SDS011;33878;47.442;18.916;2022-09-09T06:29:05;7.90;;;5.75;;
48100;SDS011;33878;47.442;18.916;2022-09-09T06:31:53;6.82;;;4.55;;
48100;SDS011;33878;47.442;18.916;2022-09-09T06:34:39;7.75;;;4.28;;
48100;SDS011;33878;47.442;18.916;2022-09-09T06:37:26;7.93;;;3.80;;
48100;SDS011;33878;47.442;18.916;2022-09-09T06:40:12;6.70;;;4.18;;
48100;SDS011;33878;47.442;18.916;2022-09-09T06:42:59;5.40;;;3.72;;
48100;SDS011;33878;47.442;18.916;2022-09-09T06:45:52;7.15;;;3.65;;
48100;SDS011;33878;47.442;18.916;2022-09-09T06:48:46;5.68;;;3.65;;
48100;SDS011;33878;47.442;18.916;2022-09-09T06:51:34;4.95;;;3.40;;
48100;SDS011;33878;47.442;18.916;2022-09-09T06:54:21;6.10;;;3.47;;
48100;SDS011;33878;47.442;18.916;2022-09-09T06:57:10;7.18;;;3.80;;
48100;SDS011;33878;47.442;18.916;2022-09-09T07:00:17;7.05;;;3.95;;
48100;SDS011;33878;47.442;18.916;2022-09-09T07:03:04;4.72;;;3.03;;
48100;SDS011;33878;47.442;18.916;2022-09-09T07:05:55;5.03;;;3.47;;
48100;SDS011;33878;47.442;18.916;2022-09-09T07:08:42;4.40;;;3.10;;
48100;SDS011;33878;47.442;18.916;2022-09-09T07:11:42;5.72;;;3.92;;
48100;SDS011;33878;47.442;18.916;2022-09-09T07:14:30;4.55;;;3.05;;
48100;SDS011;33878;47.442;18.916;2022-09-09T07:17:17;3.95;;;2.80;;
48100;SDS011;33878;47.442;18.916;2022-09-09T07:20:03;5.70;;;3.28;;
48100;SDS011;33878;47.442;18.916;2022-09-09T07:22:54;4.55;;;2.58;;
48100;SDS011;33878;47.442;18.916;2022-09-09T07:25:44;6.62;;;3.37;;
48100;SDS011;33878;47.442;18.916;2022-09-09T07:28:31;5.30;;;3.13;;
48100;SDS011;33878;47.442;18.916;2022-09-09T07:31:19;4.80;;;2.80;;
48100;SDS011;33878;47.442;18.916;2022-09-09T07:34:07;4.35;;;2.70;;
48100;SDS011;33878;47.442;18.916;2022-09-09T07:36:53;4.68;;;2.78;;
48100;SDS011;33878;47.442;18.916;2022-09-09T07:39:40;4.35;;;2.60;;
48100;SDS011;33878;47.442;18.916;2022-09-09T07:42:27;4.00;;;2.15;;
48100;SDS011;33878;47.442;18.916;2022-09-09T07:45:14;2.83;;;1.90;;
48100;SDS011;33878;47.442;18.916;2022-09-09T07:48:01;3.33;;;1.85;;
48100;SDS011;33878;47.442;18.916;2022-09-09T07:50:48;4.55;;;2.00;;
48100;SDS011;33878;47.442;18.916;2022-09-09T07:53:34;3.22;;;1.52;;
48100;SDS011;33878;47.442;18.916;2022-09-09T07:56:22;3.28;;;1.92;;
48100;SDS011;33878;47.442;18.916;2022-09-09T07:59:09;2.87;;;1.85;;
48100;SDS011;33878;47.442;18.916;2022-09-09T08:01:57;2.22;;;1.70;;
48100;SDS011;33878;47.442;18.916;2022-09-09T08:04:45;3.47;;;1.60;;
48100;SDS011;33878;47.442;18.916;2022-09-09T08:07:32;2.92;;;1.50;;
48100;SDS011;33878;47.442;18.916;2022-09-09T08:10:18;2.08;;;1.40;;
48100;SDS011;33878;47.442;18.916;2022-09-09T08:13:05;4.25;;;1.45;;
48100;SDS011;33878;47.442;18.916;2022-09-09T08:16:08;2.87;;;1.20;;
48100;SDS011;33878;47.442;18.916;2022-09-09T08:18:56;3.55;;;1.40;;
48100;SDS011;33878;47.442;18.916;2022-09-09T08:21:43;2.78;;;1.40;;
48100;SDS011;33878;47.442;18.916;2022-09-09T08:24:30;1.62;;;1.23;;
48100;SDS011;33878;47.442;18.916;2022-09-09T08:27:16;4.47;;;1.30;;
48100;SDS011;33878;47.442;18.916;2022-09-09T08:30:02;2.25;;;1.30;;
48100;SDS011;33878;47.442;18.916;2022-09-09T08:32:50;1.20;;;1.10;;
48100;SDS011;33878;47.442;18.916;2022-09-09T08:35:39;2.10;;;1.40;;
48100;SDS011;33878;47.442;18.916;2022-09-09T08:38:25;3.00;;;1.10;;
48100;SDS011;33878;47.442;18.916;2022-09-09T08:41:17;2.22;;;1.10;;
48100;SDS011;33878;47.442;18.916;2022-09-09T08:50:22;2.37;;;1.10;;
48100;SDS011;33878;47.442;18.916;2022-09-09T08:53:11;1.77;;;0.95;;
48100;SDS011;33878;47.442;18.916;2022-09-09T08:56:09;2.65;;;1.08;;
48100;SDS011;33878;47.442;18.916;2022-09-09T08:59:02;3.15;;;1.00;;
48100;SDS011;33878;47.442;18.916;2022-09-09T09:01:59;2.58;;;1.23;;
48100;SDS011;33878;47.442;18.916;2022-09-09T09:04:59;1.80;;;1.00;;
48100;SDS011;33878;47.442;18.916;2022-09-09T09:11:06;0.77;;;0.77;;
48100;SDS011;33878;47.442;18.916;2022-09-09T09:13:54;1.87;;;0.70;;
48100;SDS011;33878;47.442;18.916;2022-09-09T09:19:41;2.65;;;0.75;;
48100;SDS011;33878;47.442;18.916;2022-09-09T09:22:41;0.73;;;0.73;;
48100;SDS011;33878;47.442;18.916;2022-09-09T09:25:38;1.73;;;0.70;;
48100;SDS011;33878;47.442;18.916;2022-09-09T09:28:27;1.87;;;0.98;;
48100;SDS011;33878;47.442;18.916;2022-09-09T09:31:17;1.55;;;0.73;;
48100;SDS011;33878;47.442;18.916;2022-09-09T09:34:04;3.85;;;0.70;;
48100;SDS011;33878;47.442;18.916;2022-09-09T09:36:54;3.90;;;0.60;;
48100;SDS011;33878;47.442;18.916;2022-09-09T09:39:42;1.15;;;0.70;;
48100;SDS011;33878;47.442;18.916;2022-09-09T09:42:57;1.83;;;0.70;;
48100;SDS011;33878;47.442;18.916;2022-09-09T09:45:44;0.82;;;0.60;;
48100;SDS011;33878;47.442;18.916;2022-09-09T09:49:01;3.05;;;0.70;;
48100;SDS011;33878;47.442;18.916;2022-09-09T09:51:51;0.65;;;0.60;;
48100;SDS011;33878;47.442;18.916;2022-09-09T09:54:39;1.00;;;0.90;;
48100;SDS011;33878;47.442;18.916;2022-09-09T09:57:31;1.35;;;0.70;;
48100;SDS011;33878;47.442;18.916;2022-09-09T10:00:19;0.50;;;0.50;;
48100;SDS011;33878;47.442;18.916;2022-09-09T10:03:21;0.80;;;0.80;;
48100;SDS011;33878;47.442;18.916;2022-09-09T10:06:08;1.60;;;0.65;;
48100;SDS011;33878;47.442;18.916;2022-09-09T10:08:55;0.60;;;0.43;;
48100;SDS011;33878;47.442;18.916;2022-09-09T10:14:38;3.05;;;0.73;;
48100;SDS011;33878;47.442;18.916;2022-09-09T10:20:37;1.45;;;0.57;;
48100;SDS011;33878;47.442;18.916;2022-09-09T10:33:01;0.50;;;0.50;;
48100;SDS011;33878;47.442;18.916;2022-09-09T10:42:12;1.12;;;0.70;;
48100;SDS011;33878;47.442;18.916;2022-09-09T10:45:07;1.48;;;0.40;;
48100;SDS011;33878;47.442;18.916;2022-09-09T10:54:28;0.90;;;0.50;;
48100;SDS011;33878;47.442;18.916;2022-09-09T11:00:24;0.77;;;0.60;;
48100;SDS011;33878;47.442;18.916;2022-09-09T11:03:15;1.70;;;0.60;;
48100;SDS011;33878;47.442;18.916;2022-09-09T11:06:17;1.62;;;0.50;;
48100;SDS011;33878;47.442;18.916;2022-09-09T11:09:05;2.37;;;0.50;;
48100;SDS011;33878;47.442;18.916;2022-09-09T11:11:53;2.15;;;0.60;;
48100;SDS011;33878;47.442;18.916;2022-09-09T11:14:45;3.17;;;0.70;;
48100;SDS011;33878;47.442;18.916;2022-09-09T11:17:40;4.55;;;0.70;;
48100;SDS011;33878;47.442;18.916;2022-09-09T11:20:28;1.10;;;0.60;;
48100;SDS011;33878;47.442;18.916;2022-09-09T11:23:20;1.45;;;0.68;;
48100;SDS011;33878;47.442;18.916;2022-09-09T11:26:12;1.50;;;0.60;;
48100;SDS011;33878;47.442;18.916;2022-09-09T11:41:09;4.15;;;0.70;;
48100;SDS011;33878;47.442;18.916;2022-09-09T11:43:56;1.20;;;0.70;;
48100;SDS011;33878;47.442;18.916;2022-09-09T11:46:49;4.90;;;0.70;;
48100;SDS011;33878;47.442;18.916;2022-09-09T11:52:34;0.75;;;0.55;;
48100;SDS011;33878;47.442;18.916;2022-09-09T11:58:17;1.03;;;0.60;;
48100;SDS011;33878;47.442;18.916;2022-09-09T12:01:14;1.40;;;0.52;;
48100;SDS011;33878;47.442;18.916;2022-09-09T12:06:56;2.90;;;0.62;;
48100;SDS011;33878;47.442;18.916;2022-09-09T12:13:25;2.42;;;0.55;;
48100;SDS011;33878;47.442;18.916;2022-09-09T12:16:27;1.15;;;0.70;;
48100;SDS011;33878;47.442;18.916;2022-09-09T12:19:23;1.25;;;0.80;;
48100;SDS011;33878;47.442;18.916;2022-09-09T12:28:56;1.00;;;0.60;;
48100;SDS011;33878;47.442;18.916;2022-09-09T12:32:10;1.58;;;0.73;;
48100;SDS011;33878;47.442;18.916;2022-09-09T12:38:14;1.55;;;0.60;;
48100;SDS011;33878;47.442;18.916;2022-09-09T12:41:05;0.60;;;0.60;;
48100;SDS011;33878;47.442;18.916;2022-09-09T12:43:51;1.33;;;0.70;;
48100;SDS011;33878;47.442;18.916;2022-09-09T12:46:49;1.17;;;0.80;;
48100;SDS011;33878;47.442;18.916;2022-09-09T12:49:37;0.60;;;0.60;;
48100;SDS011;33878;47.442;18.916;2022-09-09T12:52:27;1.02;;;0.55;;
48100;SDS011;33878;47.442;18.916;2022-09-09T12:58:11;2.40;;;0.80;;
48100;SDS011;33878;47.442;18.916;2022-09-09T13:00:59;1.62;;;0.90;;
48100;SDS011;33878;47.442;18.916;2022-09-09T13:03:51;1.02;;;0.70;;
48100;SDS011;33878;47.442;18.916;2022-09-09T13:06:38;1.17;;;0.70;;
48100;SDS011;33878;47.442;18.916;2022-09-09T13:09:24;0.85;;;0.70;;
48100;SDS011;33878;47.442;18.916;2022-09-09T13:12:16;1.33;;;0.80;;
48100;SDS011;33878;47.442;18.916;2022-09-09T13:15:04;2.15;;;0.60;;
48100;SDS011;33878;47.442;18.916;2022-09-09T13:18:07;0.80;;;0.73;;
48100;SDS011;33878;47.442;18.916;2022-09-09T13:20:57;1.67;;;0.82;;
48100;SDS011;33878;47.442;18.916;2022-09-09T13:23:47;2.17;;;0.60;;
48100;SDS011;33878;47.442;18.916;2022-09-09T13:26:35;0.80;;;0.77;;
48100;SDS011;33878;47.442;18.916;2022-09-09T13:29:21;1.60;;;0.70;;
48100;SDS011;33878;47.442;18.916;2022-09-09T13:32:17;0.95;;;0.55;;
48100;SDS011;33878;47.442;18.916;2022-09-09T13:35:04;2.17;;;0.70;;
48100;SDS011;33878;47.442;18.916;2022-09-09T13:37:52;1.05;;;0.50;;
48100;SDS011;33878;47.442;18.916;2022-09-09T13:40:39;2.28;;;0.60;;
48100;SDS011;33878;47.442;18.916;2022-09-09T13:43:25;3.72;;;0.80;;
48100;SDS011;33878;47.442;18.916;2022-09-09T13:49:27;2.47;;;0.62;;
48100;SDS011;33878;47.442;18.916;2022-09-09T13:52:15;1.10;;;0.60;;
48100;SDS011;33878;47.442;18.916;2022-09-09T13:55:04;2.15;;;0.77;;
48100;SDS011;33878;47.442;18.916;2022-09-09T13:57:59;1.70;;;0.60;;
48100;SDS011;33878;47.442;18.916;2022-09-09T14:00:47;1.52;;;0.75;;
48100;SDS011;33878;47.442;18.916;2022-09-09T14:03:34;1.08;;;0.70;;
48100;SDS011;33878;47.442;18.916;2022-09-09T14:06:20;2.72;;;0.73;;
48100;SDS011;33878;47.442;18.916;2022-09-09T14:09:09;2.40;;;0.62;;
48100;SDS011;33878;47.442;18.916;2022-09-09T14:11:57;0.70;;;0.57;;
48100;SDS011;33878;47.442;18.916;2022-09-09T14:14:43;1.17;;;0.68;;
48100;SDS011;33878;47.442;18.916;2022-09-09T14:17:29;0.60;;;0.60;;
48100;SDS011;33878;47.442;18.916;2022-09-09T14:20:16;1.83;;;0.50;;
48100;SDS011;33878;47.442;18.916;2022-09-09T14:23:03;1.87;;;0.73;;
48100;SDS011;33878;47.442;18.916;2022-09-09T14:25:49;2.25;;;0.55;;
48100;SDS011;33878;47.442;18.916;2022-09-09T14:28:36;2.40;;;0.60;;
48100;SDS011;33878;47.442;18.916;2022-09-09T14:31:40;1.20;;;0.70;;
48100;SDS011;33878;47.442;18.916;2022-09-09T14:34:26;1.37;;;0.60;;
48100;SDS011;33878;47.442;18.916;2022-09-09T14:37:12;2.50;;;0.77;;
48100;SDS011;33878;47.442;18.916;2022-09-09T14:39:58;1.37;;;0.62;;
48100;SDS011;33878;47.442;18.916;2022-09-09T14:42:45;1.98;;;0.77;;
48100;SDS011;33878;47.442;18.916;2022-09-09T14:45:31;2.17;;;0.60;;
48100;SDS011;33878;47.442;18.916;2022-09-09T14:48:24;0.80;;;0.62;;
48100;SDS011;33878;47.442;18.916;2022-09-09T14:51:11;0.70;;;0.60;;
48100;SDS011;33878;47.442;18.916;2022-09-09T14:53:59;2.83;;;0.82;;
48100;SDS011;33878;47.442;18.916;2022-09-09T14:56:45;3.62;;;0.93;;
48100;SDS011;33878;47.442;18.916;2022-09-09T14:59:33;2.33;;;0.93;;
48100;SDS011;33878;47.442;18.916;2022-09-09T15:02:20;1.90;;;0.82;;
48100;SDS011;33878;47.442;18.916;2022-09-09T15:05:06;1.48;;;0.60;;
48100;SDS011;33878;47.442;18.916;2022-09-09T15:07:53;1.45;;;0.65;;
48100;SDS011;33878;47.442;18.916;2022-09-09T15:10:39;1.98;;;0.60;;
48100;SDS011;33878;47.442;18.916;2022-09-09T15:13:25;1.73;;;0.68;;
48100;SDS011;33878;47.442;18.916;2022-09-09T15:16:16;2.05;;;0.60;;
48100;SDS011;33878;47.442;18.916;2022-09-09T15:19:04;1.67;;;0.50;;
48100;SDS011;33878;47.442;18.916;2022-09-09T15:21:50;2.80;;;0.60;;
48100;SDS011;33878;47.442;18.916;2022-09-09T15:24:37;1.35;;;0.80;;
48100;SDS011;33878;47.442;18.916;2022-09-09T15:27:23;1.40;;;0.80;;
48100;SDS011;33878;47.442;18.916;2022-09-09T15:30:10;2.15;;;0.60;;
48100;SDS011;33878;47.442;18.916;2022-09-09T15:32:57;2.90;;;0.77;;
48100;SDS011;33878;47.442;18.916;2022-09-09T15:35:43;0.88;;;0.80;;
48100;SDS011;33878;47.442;18.916;2022-09-09T15:38:31;1.33;;;0.70;;
48100;SDS011;33878;47.442;18.916;2022-09-09T15:41:18;2.17;;;0.62;;
48100;SDS011;33878;47.442;18.916;2022-09-09T15:44:05;0.90;;;0.77;;
48100;SDS011;33878;47.442;18.916;2022-09-09T15:46:52;3.35;;;0.60;;
48100;SDS011;33878;47.442;18.916;2022-09-09T15:49:41;1.15;;;0.70;;
48100;SDS011;33878;47.442;18.916;2022-09-09T15:52:28;1.10;;;0.70;;
48100;SDS011;33878;47.442;18.916;2022-09-09T15:55:15;1.10;;;1.00;;
48100;SDS011;33878;47.442;18.916;2022-09-09T15:58:01;2.65;;;1.70;;
48100;SDS011;33878;47.442;18.916;2022-09-09T16:00:47;2.72;;;1.65;;
48100;SDS011;33878;47.442;18.916;2022-09-09T16:03:38;3.08;;;1.27;;
48100;SDS011;33878;47.442;18.916;2022-09-09T16:06:30;1.40;;;0.90;;
48100;SDS011;33878;47.442;18.916;2022-09-09T16:09:17;1.55;;;1.00;;
48100;SDS011;33878;47.442;18.916;2022-09-09T16:12:03;2.87;;;0.90;;
48100;SDS011;33878;47.442;18.916;2022-09-09T16:14:53;1.33;;;0.70;;
48100;SDS011;33878;47.442;18.916;2022-09-09T16:17:40;3.55;;;0.90;;
48100;SDS011;33878;47.442;18.916;2022-09-09T16:20:26;1.85;;;1.00;;
48100;SDS011;33878;47.442;18.916;2022-09-09T16:23:13;1.55;;;0.95;;
48100;SDS011;33878;47.442;18.916;2022-09-09T16:26:00;1.75;;;0.80;;
48100;SDS011;33878;47.442;18.916;2022-09-09T16:28:50;2.47;;;1.00;;
48100;SDS011;33878;47.442;18.916;2022-09-09T16:31:37;2.90;;;0.88;;
48100;SDS011;33878;47.442;18.916;2022-09-09T16:34:23;3.92;;;0.82;;
48100;SDS011;33878;47.442;18.916;2022-09-09T16:37:11;1.87;;;0.90;;
48100;SDS011;33878;47.442;18.916;2022-09-09T16:39:57;4.10;;;1.10;;
48100;SDS011;33878;47.442;18.916;2022-09-09T16:42:43;2.87;;;0.93;;
48100;SDS011;33878;47.442;18.916;2022-09-09T16:45:29;2.15;;;1.00;;
48100;SDS011;33878;47.442;18.916;2022-09-09T16:48:16;2.62;;;0.90;;
48100;SDS011;33878;47.442;18.916;2022-09-09T16:51:05;5.12;;;1.70;;
48100;SDS011;33878;47.442;18.916;2022-09-09T16:53:53;4.18;;;1.30;;
48100;SDS011;33878;47.442;18.916;2022-09-09T16:56:41;4.95;;;1.25;;
48100;SDS011;33878;47.442;18.916;2022-09-09T16:59:28;6.18;;;1.10;;
48100;SDS011;33878;47.442;18.916;2022-09-09T17:02:14;3.10;;;1.37;;
48100;SDS011;33878;47.442;18.916;2022-09-09T17:05:00;2.70;;;1.10;;
48100;SDS011;33878;47.442;18.916;2022-09-09T17:07:47;6.22;;;1.27;;
48100;SDS011;33878;47.442;18.916;2022-09-09T17:10:33;3.28;;;1.17;;
48100;SDS011;33878;47.442;18.916;2022-09-09T17:13:19;2.62;;;1.10;;
48100;SDS011;33878;47.442;18.916;2022-09-09T17:16:06;2.50;;;1.20;;
48100;SDS011;33878;47.442;18.916;2022-09-09T17:18:52;4.68;;;1.33;;
48100;SDS011;33878;47.442;18.916;2022-09-09T17:21:41;2.80;;;1.25;;
48100;SDS011;33878;47.442;18.916;2022-09-09T17:24:47;3.08;;;1.20;;
48100;SDS011;33878;47.442;18.916;2022-09-09T17:27:33;2.95;;;1.25;;
48100;SDS011;33878;47.442;18.916;2022-09-09T17:30:19;1.92;;;1.00;;
48100;SDS011;33878;47.442;18.916;2022-09-09T17:33:06;4.47;;;1.45;;
48100;SDS011;33878;47.442;18.916;2022-09-09T17:35:52;3.08;;;1.30;;
48100;SDS011;33878;47.442;18.916;2022-09-09T17:38:39;4.10;;;1.45;;
48100;SDS011;33878;47.442;18.916;2022-09-09T17:41:36;4.87;;;1.87;;
48100;SDS011;33878;47.442;18.916;2022-09-09T17:44:23;4.85;;;1.60;;
48100;SDS011;33878;47.442;18.916;2022-09-09T17:47:10;2.78;;;1.30;;
48100;SDS011;33878;47.442;18.916;2022-09-09T17:49:56;5.22;;;1.67;;
48100;SDS011;33878;47.442;18.916;2022-09-09T17:52:44;2.55;;;1.48;;
48100;SDS011;33878;47.442;18.916;2022-09-09T17:55:32;5.12;;;1.80;;
48100;SDS011;33878;47.442;18.916;2022-09-09T17:58:18;4.00;;;1.60;;
48100;SDS011;33878;47.442;18.916;2022-09-09T18:13:51;4.32;;;1.20;;
48100;SDS011;33878;47.442;18.916;2022-09-09T18:16:39;6.70;;;1.98;;
48100;SDS011;33878;47.442;18.916;2022-09-09T18:19:26;4.43;;;2.17;;
48100;SDS011;33878;47.442;18.916;2022-09-09T18:22:15;6.00;;;2.72;;
48100;SDS011;33878;47.442;18.916;2022-09-09T18:25:04;5.37;;;2.60;;
48100;SDS011;33878;47.442;18.916;2022-09-09T18:27:51;6.25;;;2.67;;
48100;SDS011;33878;47.442;18.916;2022-09-09T18:30:39;7.70;;;3.50;;
48100;SDS011;33878;47.442;18.916;2022-09-09T18:33:26;6.25;;;3.40;;
48100;SDS011;33878;47.442;18.916;2022-09-09T18:36:17;6.43;;;2.72;;
48100;SDS011;33878;47.442;18.916;2022-09-09T18:39:05;9.40;;;2.12;;
48100;SDS011;33878;47.442;18.916;2022-09-09T18:41:54;3.67;;;1.55;;
48100;SDS011;33878;47.442;18.916;2022-09-09T18:44:45;6.43;;;1.87;;
48100;SDS011;33878;47.442;18.916;2022-09-09T18:47:31;4.12;;;1.40;;
48100;SDS011;33878;47.442;18.916;2022-09-09T18:50:18;6.55;;;1.67;;
48100;SDS011;33878;47.442;18.916;2022-09-09T18:53:04;6.32;;;1.95;;
48100;SDS011;33878;47.442;18.916;2022-09-09T18:55:56;8.45;;;2.22;;
48100;SDS011;33878;47.442;18.916;2022-09-09T18:58:46;3.00;;;1.85;;
48100;SDS011;33878;47.442;18.916;2022-09-09T19:01:33;4.82;;;1.62;;